Time;durP1;ratioP1;P1;durP2;ratioP2;P2;SDS_P1;SDS_P2;PMS_P1;PMS_P2;Temp;Humidity;BMP_temperature;BMP_pressure;BME280_temperature;BME280_humidity;BME280_pressure;Samples;Min_cycle;Max_cycle;Signal;HPM_P1;HPM_P2
2021/09/18 00:01:17;;;;;;;10.85;8.48;;;;;;;;;;5073576;28;20116;-76
2021/09/18 00:03:43;;;;;;;12.88;8.75;;;;;;;;;;5074061;28;20024;-77
2021/09/18 00:06:10;;;;;;;12.27;8.52;;;;;;;;;;5056762;28;20081;-77
2021/09/18 00:08:36;;;;;;;17.23;8.57;;;;;;;;;;5075018;28;20379;-76
2021/09/18 00:11:02;;;;;;;11.65;8.57;;;;;;;;;;5071215;28;20103;-78
2021/09/18 00:13:29;;;;;;;12.48;9.48;;;;;;;;;;5072658;28;20032;-77
2021/09/18 00:15:55;;;;;;;11.10;8.68;;;;;;;;;;5072013;28;20028;-78
2021/09/18 00:18:21;;;;;;;11.85;9.13;;;;;;;;;;5073036;28;20068;-76
2021/09/18 00:20:47;;;;;;;10.02;8.90;;;;;;;;;;5074020;28;20534;-77
2021/09/18 00:23:13;;;;;;;11.35;8.85;;;;;;;;;;5079618;28;20029;-77
2021/09/18 00:25:39;;;;;;;12.90;9.48;;;;;;;;;;5079399;28;20107;-77
2021/09/18 00:28:05;;;;;;;12.65;9.57;;;;;;;;;;5071845;28;20016;-77
2021/09/18 00:30:31;;;;;;;12.02;8.60;;;;;;;;;;5070037;28;20040;-78
2021/09/18 00:32:57;;;;;;;12.20;9.27;;;;;;;;;;5075002;28;20028;-77
2021/09/18 00:35:23;;;;;;;10.88;8.68;;;;;;;;;;5071514;28;20465;-78
2021/09/18 00:37:49;;;;;;;10.77;8.52;;;;;;;;;;5070699;28;20036;-78
2021/09/18 00:40:16;;;;;;;12.35;9.68;;;;;;;;;;5071025;28;20060;-77
2021/09/18 00:42:42;;;;;;;13.75;8.93;;;;;;;;;;5071167;28;20055;-76
2021/09/18 00:45:08;;;;;;;10.65;8.05;;;17.30;99.90;;;;;;5071612;28;20032;-77
2021/09/18 00:47:33;;;;;;;12.85;8.15;;;12.10;99.90;;;;;;5052956;28;20024;-77
2021/09/18 00:49:59;;;;;;;11.82;8.50;;;12.00;99.90;;;;;;5070178;28;20093;-76
2021/09/18 00:52:25;;;;;;;10.18;8.75;;;13.00;99.90;;;;;;5052193;28;20032;-77
2021/09/18 00:54:50;;;;;;;11.05;7.80;;;11.60;99.90;;;;;;5069358;28;20071;-76
2021/09/18 00:57:17;;;;;;;13.48;8.40;;;12.70;99.90;;;;;;5070884;28;20467;-76
2021/09/18 00:59:43;;;;;;;8.43;7.10;;;12.60;99.90;;;;;;5070249;28;20024;-76
2021/09/18 01:02:09;;;;;;;10.02;7.85;;;11.70;99.90;;;;;;5070704;28;20024;-76
2021/09/18 01:04:36;;;;;;;9.65;7.45;;;13.00;99.90;;;;;;5070737;28;20454;-76
2021/09/18 01:07:02;;;;;;;9.25;8.05;;;11.70;99.90;;;;;;5070773;28;20029;-76
2021/09/18 01:09:28;;;;;;;10.75;7.30;;;11.50;99.90;;;;;;5070277;28;20025;-77
2021/09/18 01:11:54;;;;;;;9.30;6.90;;;12.80;99.90;;;;;;5071428;28;20071;-76
2021/09/18 01:14:20;;;;;;;9.73;8.07;;;11.40;99.90;;;;;;5081526;28;20048;-77
2021/09/18 01:16:45;;;;;;;9.68;8.15;;;11.30;99.90;;;;;;5058382;28;20039;-76
2021/09/18 01:19:11;;;;;;;9.95;8.23;;;11.60;99.90;;;;;;5088671;28;20033;-76
2021/09/18 01:21:37;;;;;;;9.95;7.90;;;11.00;99.90;;;;;;5083779;28;20269;-76
2021/09/18 01:24:02;;;;;;;10.57;8.30;;;10.70;99.90;;;;;;5089216;28;20024;-76
2021/09/18 01:26:33;;;;;;;12.50;8.55;;;10.70;99.90;;;;;;5085805;28;20032;-76
2021/09/18 01:29:00;;;;;;;11.88;8.82;;;11.40;99.90;;;;;;5079522;28;20020;-78
2021/09/18 01:31:26;;;;;;;10.93;8.68;;;11.00;99.90;;;;;;5071041;28;20021;-76
2021/09/18 01:33:52;;;;;;;13.40;9.55;;;10.70;99.90;;;;;;5070822;28;20024;-75
2021/09/18 01:36:18;;;;;;;11.80;8.57;;;10.70;99.90;;;;;;5070759;28;20451;-76
2021/09/18 01:38:43;;;;;;;11.68;9.48;;;10.70;99.90;;;;;;5069924;28;20035;-76
2021/09/18 01:41:09;;;;;;;10.48;8.90;;;11.00;99.90;;;;;;5070555;28;20044;-76
2021/09/18 01:43:34;;;;;;;14.55;9.65;;;10.80;99.90;;;;;;5070827;28;20108;-76
2021/09/18 01:46:00;;;;;;;11.35;8.98;;;10.60;99.90;;;;;;5070494;28;20100;-76
2021/09/18 01:48:26;;;;;;;16.50;10.05;;;10.80;99.90;;;;;;5071016;28;20146;-76
2021/09/18 01:50:53;;;;;;;10.85;8.57;;;10.50;99.90;;;;;;5069901;28;20020;-76
2021/09/18 01:53:21;;;;;;;13.38;8.65;;;10.50;99.90;;;;;;5070394;28;20024;-76
2021/09/18 01:55:48;;;;;;;11.20;8.63;;;10.40;99.90;;;;;;5068727;28;20029;-76
2021/09/18 01:58:14;;;;;;;11.20;9.52;;;12.10;99.90;;;;;;5069398;28;20489;-76
2021/09/18 02:00:52;;;;;;;16.30;10.27;;;10.20;99.90;;;;;;5067989;28;20507;-76
2021/09/18 02:03:18;;;;;;;15.35;10.02;;;11.60;99.90;;;;;;5070417;28;20029;-76
2021/09/18 02:05:45;;;;;;;13.63;10.30;;;10.50;99.90;;;;;;5068842;28;20548;-76
2021/09/18 02:08:10;;;;;;;13.02;10.77;;;11.10;99.90;;;;;;5073536;28;20039;-76
2021/09/18 02:10:37;;;;;;;13.77;10.48;;;;;;;;;;5073092;28;20111;-76
2021/09/18 02:13:05;;;;;;;13.85;10.63;;;10.50;99.90;;;;;;5073664;28;20033;-76
2021/09/18 02:15:31;;;;;;;19.25;12.40;;;11.60;99.90;;;;;;5073985;28;20037;-76
2021/09/18 02:17:57;;;;;;;14.60;10.55;;;12.10;99.90;;;;;;5072550;28;20081;-76
2021/09/18 02:20:26;;;;;;;15.68;10.80;;;11.20;99.90;;;;;;5073613;28;20037;-76
2021/09/18 02:22:52;;;;;;;19.15;10.93;;;10.80;99.90;;;;;;5072683;28;20492;-77
2021/09/18 02:25:18;;;;;;;16.15;10.10;;;12.60;99.90;;;;;;5074357;28;20029;-76
2021/09/18 02:27:45;;;;;;;14.63;9.00;;;10.70;99.90;;;;;;5072799;28;20497;-76
2021/09/18 02:30:15;;;;;;;10.88;9.10;;;10.70;99.90;;;;;;5073487;28;20029;-76
2021/09/18 02:32:41;;;;;;;11.20;8.82;;;11.50;99.90;;;;;;5074054;28;20043;-76
2021/09/18 02:35:09;;;;;;;13.20;8.50;;;10.60;99.90;;;;;;5075127;28;20430;-76
2021/09/18 02:37:35;;;;;;;14.30;8.07;;;10.50;99.90;;;;;;5073925;28;20507;-76
2021/09/18 02:40:02;;;;;;;11.48;9.10;;;10.20;99.90;;;;;;5073032;28;20033;-76
2021/09/18 02:42:28;;;;;;;11.20;8.57;;;10.40;99.90;;;;;;5073737;28;20029;-76
2021/09/18 02:44:54;;;;;;;10.60;8.73;;;11.70;99.90;;;;;;5073439;28;20055;-76
2021/09/18 02:47:19;;;;;;;11.07;9.10;;;10.40;99.90;;;;;;5072109;28;20024;-76
2021/09/18 02:49:45;;;;;;;15.27;8.95;;;10.30;99.90;;;;;;5072750;28;20345;-76
2021/09/18 02:52:11;;;;;;;13.45;9.73;;;10.70;99.90;;;;;;5071977;28;20504;-76
2021/09/18 02:54:37;;;;;;;13.20;8.80;;;10.30;99.90;;;;;;5072919;28;20055;-76
2021/09/18 02:57:02;;;;;;;10.85;9.35;;;10.20;99.90;;;;;;5073072;28;20450;-76
2021/09/18 02:59:28;;;;;;;12.05;8.85;;;10.30;99.90;;;;;;5072517;28;20033;-76
2021/09/18 03:01:53;;;;;;;14.45;10.13;;;12.10;99.90;;;;;;5073002;28;20055;-76
2021/09/18 03:04:19;;;;;;;13.93;10.10;;;11.80;99.90;;;;;;5072984;28;20028;-76
2021/09/18 03:06:45;;;;;;;14.07;9.38;;;11.10;99.90;;;;;;5072832;28;20071;-76
2021/09/18 03:09:10;;;;;;;12.05;9.48;;;10.50;99.90;;;;;;5071912;28;20408;-76
2021/09/18 03:11:36;;;;;;;14.15;9.05;;;11.00;99.90;;;;;;5072548;28;20047;-76
2021/09/18 03:14:02;;;;;;;12.30;8.13;;;10.60;99.90;;;;;;5071685;28;20036;-76
2021/09/18 03:16:27;;;;;;;11.80;8.60;;;10.30;99.90;;;;;;5071333;28;20111;-76
2021/09/18 03:18:53;;;;;;;12.80;9.32;;;11.80;99.90;;;;;;5070990;28;20112;-76
2021/09/18 03:21:19;;;;;;;14.07;8.63;;;10.60;99.90;;;;;;5070875;28;20504;-76
2021/09/18 03:23:44;;;;;;;11.55;9.25;;;10.10;99.90;;;;;;5072863;28;20013;-76
2021/09/18 03:26:10;;;;;;;11.55;9.48;;;9.90;99.90;;;;;;5072413;28;20156;-77
2021/09/18 03:28:35;;;;;;;14.25;9.95;;;10.10;99.90;;;;;;5072399;28;20023;-76
2021/09/18 03:31:01;;;;;;;16.10;10.60;;;11.40;99.90;;;;;;5071954;28;20023;-76
2021/09/18 03:33:27;;;;;;;14.77;11.20;;;11.40;99.90;;;;;;5071343;28;20055;-77
2021/09/18 03:35:52;;;;;;;11.60;10.15;;;11.40;99.90;;;;;;5072274;28;20399;-76
2021/09/18 03:38:19;;;;;;;16.60;10.13;;;10.50;99.90;;;;;;5072312;28;20025;-76
2021/09/18 03:40:45;;;;;;;13.45;9.23;;;11.50;99.90;;;;;;5071423;28;20097;-76
2021/09/18 03:43:10;;;;;;;12.63;8.45;;;11.30;99.90;;;;;;5072949;28;20056;-76
2021/09/18 03:45:36;;;;;;;10.88;8.45;;;10.20;99.90;;;;;;5073781;28;20032;-77
2021/09/18 03:48:03;;;;;;;12.95;9.35;;;9.90;99.90;;;;;;5072920;28;20021;-76
2021/09/18 03:50:28;;;;;;;10.60;9.15;;;9.80;99.90;;;;;;5071414;28;20131;-76
2021/09/18 03:52:54;;;;;;;12.55;8.88;;;9.90;99.90;;;;;;5070494;28;20124;-76
2021/09/18 03:55:20;;;;;;;14.60;9.77;;;10.10;99.90;;;;;;5053866;28;20040;-76
2021/09/18 03:57:45;;;;;;;12.50;9.27;;;10.10;99.90;;;;;;5070673;28;20446;-76
2021/09/18 04:00:12;;;;;;;13.73;10.35;;;10.00;99.90;;;;;;5069405;28;20028;-76
2021/09/18 04:02:37;;;;;;;13.32;10.82;;;10.10;99.90;;;;;;5071948;28;20028;-76
2021/09/18 04:05:03;;;;;;;19.02;11.20;;;10.20;99.90;;;;;;5070316;28;20172;-76
2021/09/18 04:07:29;;;;;;;13.48;11.10;;;10.20;99.90;;;;;;5071702;28;20109;-76
2021/09/18 04:09:55;;;;;;;12.98;10.48;;;10.60;99.90;;;;;;5070276;28;20025;-76
2021/09/18 04:12:21;;;;;;;14.95;11.25;;;10.30;99.90;;;;;;5071360;28;20033;-76
2021/09/18 04:14:46;;;;;;;13.38;10.38;;;10.40;99.90;;;;;;5071702;28;20038;-76
2021/09/18 04:17:12;;;;;;;12.75;10.27;;;11.30;99.90;;;;;;5071688;28;20481;-76
2021/09/18 04:19:37;;;;;;;13.60;10.77;;;10.50;99.90;;;;;;5070864;28;20497;-76
2021/09/18 04:22:04;;;;;;;15.85;9.63;;;10.30;99.90;;;;;;5071370;28;20025;-76
2021/09/18 04:24:30;;;;;;;10.70;8.60;;;10.10;99.90;;;;;;5070123;28;20086;-76
2021/09/18 04:26:55;;;;;;;11.10;8.88;;;10.20;99.90;;;;;;5071091;28;20370;-76
2021/09/18 04:29:21;;;;;;;10.38;8.70;;;11.00;99.90;;;;;;5069054;28;20086;-76
2021/09/18 04:31:47;;;;;;;15.57;8.98;;;10.10;99.90;;;;;;5071472;28;20036;-76
2021/09/18 04:34:12;;;;;;;14.98;10.20;;;11.20;99.90;;;;;;5069409;28;20531;-76
2021/09/18 04:36:38;;;;;;;12.05;10.30;;;9.80;99.90;;;;;;5070944;28;20036;-76
2021/09/18 04:39:04;;;;;;;13.95;10.50;;;10.20;99.90;;;;;;5070825;28;20028;-76
2021/09/18 04:41:29;;;;;;;16.92;11.13;;;9.90;99.90;;;;;;5071846;28;20021;-76
2021/09/18 04:43:55;;;;;;;14.60;10.43;;;10.50;99.90;;;;;;5071575;28;20104;-76
2021/09/18 04:46:24;;;;;;;15.95;10.27;;;11.80;99.90;;;;;;5071698;28;20056;-76
2021/09/18 04:48:50;;;;;;;12.43;9.25;;;11.00;99.90;;;;;;5071311;28;20024;-76
2021/09/18 04:51:16;;;;;;;14.68;10.57;;;10.30;99.90;;;;;;5069776;28;20051;-76
2021/09/18 04:53:42;;;;;;;12.75;9.50;;;10.00;99.90;;;;;;5053293;28;20131;-76
2021/09/18 04:56:07;;;;;;;15.63;9.80;;;10.00;99.90;;;;;;5070081;28;20032;-76
2021/09/18 04:58:33;;;;;;;15.18;11.20;;;11.30;99.90;;;;;;5071080;28;20129;-76
2021/09/18 05:00:58;;;;;;;12.35;9.70;;;11.60;99.90;;;;;;5069800;28;20396;-76
2021/09/18 05:03:24;;;;;;;11.75;9.25;;;10.40;99.90;;;;;;5071583;28;20036;-77
2021/09/18 05:05:50;;;;;;;13.88;9.77;;;10.20;99.90;;;;;;5070750;28;20051;-76
2021/09/18 05:08:16;;;;;;;11.02;8.63;;;11.70;99.90;;;;;;5070236;28;20043;-77
2021/09/18 05:10:42;;;;;;;15.10;10.82;;;10.00;99.90;;;;;;5091646;22;20107;-77
2021/09/18 05:13:08;;;;;;;12.30;10.05;;;9.90;99.90;;;;;;5074318;28;20048;-78
2021/09/18 05:15:33;;;;;;;18.42;11.50;;;10.00;99.90;;;;;;5074110;28;20031;-77
2021/09/18 05:17:59;;;;;;;12.55;9.88;;;10.00;99.90;;;;;;5073461;28;20020;-78
2021/09/18 05:20:25;;;;;;;14.75;10.52;;;11.60;99.90;;;;;;5072803;28;20028;-78
2021/09/18 05:22:51;;;;;;;13.48;10.13;;;9.70;99.90;;;;;;5072667;28;20033;-78
2021/09/18 05:25:16;;;;;;;16.23;11.40;;;9.70;99.90;;;;;;5072917;28;20085;-78
2021/09/18 05:27:42;;;;;;;14.93;11.73;;;9.80;99.90;;;;;;5072686;28;20112;-78
2021/09/18 05:30:09;;;;;;;18.20;12.60;;;9.80;99.90;;;;;;5054417;28;20082;-78
2021/09/18 05:32:34;;;;;;;19.50;13.57;;;9.70;99.90;;;;;;5073115;28;20085;-78
2021/09/18 05:35:00;;;;;;;20.10;13.98;;;9.90;99.90;;;;;;5074064;28;20067;-77
2021/09/18 05:37:26;;;;;;;18.25;13.18;;;9.90;99.90;;;;;;5072893;28;20480;-77
2021/09/18 05:39:51;;;;;;;15.45;11.50;;;11.30;99.90;;;;;;5072391;28;20048;-78
2021/09/18 05:42:17;;;;;;;14.27;11.18;;;9.90;99.90;;;;;;5076116;28;20017;-78
2021/09/18 05:44:43;;;;;;;12.93;10.00;;;11.50;99.90;;;;;;5074603;28;20086;-80
2021/09/18 05:47:08;;;;;;;14.40;10.20;;;10.50;99.90;;;;;;5075183;28;20033;-77
2021/09/18 05:49:34;;;;;;;13.90;10.15;;;11.50;99.90;;;;;;5050791;28;20029;-78
2021/09/18 05:52:00;;;;;;;14.20;10.70;;;10.20;99.90;;;;;;5061358;28;20033;-77
2021/09/18 05:54:27;;;;;;;17.80;10.25;;;11.70;99.90;;;;;;5075962;28;20024;-77
2021/09/18 05:56:53;;;;;;;15.63;10.57;;;10.30;99.90;;;;;;5076052;28;20104;-77
2021/09/18 05:59:19;;;;;;;14.05;10.52;;;11.00;99.90;;;;;;5074632;28;20028;-77
2021/09/18 06:01:45;;;;;;;14.25;10.63;;;10.40;99.90;;;;;;5057584;28;20033;-77
2021/09/18 06:04:10;;;;;;;19.25;11.02;;;10.40;99.90;;;;;;5076878;28;20431;-78
2021/09/18 06:06:36;;;;;;;15.43;11.85;;;12.40;99.90;;;;;;5075772;28;20031;-79
2021/09/18 06:09:02;;;;;;;15.82;12.77;;;11.20;99.90;;;;;;5077266;28;20048;-78
2021/09/18 06:11:27;;;;;;;16.10;11.85;;;10.70;99.90;;;;;;5059153;28;20396;-78
2021/09/18 06:13:53;;;;;;;18.00;12.75;;;10.70;99.90;;;;;;5078312;28;20062;-78
2021/09/18 06:16:19;;;;;;;17.13;12.20;;;10.90;99.90;;;;;;5062792;28;20032;-79
2021/09/18 06:18:44;;;;;;;18.92;11.88;;;10.80;99.90;;;;;;5080065;28;20045;-81
2021/09/18 06:21:10;;;;;;;16.95;11.68;;;10.90;99.90;;;;;;5056218;28;20033;-79
2021/09/18 06:23:37;;;;;;;17.90;11.07;;;11.10;99.90;;;;;;5062543;28;20025;-79
2021/09/18 06:26:04;;;;;;;14.85;10.70;;;10.90;99.90;;;;;;5060566;28;20028;-78
2021/09/18 06:28:30;;;;;;;13.75;10.30;;;11.50;99.90;;;;;;5061978;28;20102;-80
2021/09/18 06:30:56;;;;;;;18.05;12.85;;;11.10;99.90;;;;;;5042244;28;20465;-78
2021/09/18 06:33:21;;;;;;;17.77;13.07;;;11.10;99.90;;;;;;5068798;28;20033;-78
2021/09/18 06:35:47;;;;;;;19.42;13.93;;;11.50;99.90;;;;;;5077770;28;20493;-78
2021/09/18 06:38:14;;;;;;;17.38;13.15;;;11.90;99.90;;;;;;5076149;28;20040;-78
2021/09/18 06:40:40;;;;;;;19.08;13.98;;;11.90;99.90;;;;;;5058847;28;20489;-78
2021/09/18 06:43:06;;;;;;;17.85;12.20;;;11.80;99.90;;;;;;5077585;28;20028;-78
2021/09/18 06:45:32;;;;;;;15.32;12.00;;;11.90;99.90;;;;;;5059550;28;20096;-78
2021/09/18 06:47:57;;;;;;;16.05;11.60;;;12.20;99.90;;;;;;5077792;28;20656;-79
2021/09/18 06:50:23;;;;;;;23.10;12.07;;;12.50;99.90;;;;;;5077881;28;20039;-78
2021/09/18 06:52:49;;;;;;;13.77;9.70;;;12.20;99.90;;;;;;5057060;28;20096;-78
2021/09/18 06:55:14;;;;;;;17.63;11.68;;;12.90;99.90;;;;;;5079008;28;20036;-78
2021/09/18 06:57:40;;;;;;;15.30;10.68;;;12.40;99.90;;;;;;5077171;28;20036;-78
2021/09/18 07:00:07;;;;;;;16.10;11.20;;;12.50;99.90;;;;;;5076820;28;20046;-77
2021/09/18 07:02:33;;;;;;;14.82;11.85;;;12.50;99.90;;;;;;5073579;28;20024;-77
2021/09/18 07:05:00;;;;;;;16.85;11.98;;;13.60;99.90;;;;;;5068795;28;20396;-77
2021/09/18 07:07:29;;;;;;;15.95;11.82;;;12.60;99.90;;;;;;5071738;28;20024;-76
2021/09/18 07:09:56;;;;;;;16.17;11.60;;;12.70;99.90;;;;;;5072633;28;20422;-77
2021/09/18 07:12:22;;;;;;;16.33;13.20;;;13.20;99.90;;;;;;5073284;28;20040;-77
2021/09/18 07:14:48;;;;;;;20.13;11.48;;;;;;;;;;5073738;28;20036;-76
2021/09/18 07:17:14;;;;;;;15.73;11.75;;;;;;;;;;5073279;28;20039;-76
2021/09/18 07:19:40;;;;;;;14.80;11.70;;;;;;;;;;5072689;28;20107;-76
2021/09/18 07:22:06;;;;;;;13.65;10.55;;;;;;;;;;5073150;28;20063;-76
2021/09/18 07:24:33;;;;;;;16.13;10.60;;;;;;;;;;5076622;28;20024;-78
2021/09/18 07:26:59;;;;;;;12.02;10.02;;;;;;;;;;5073026;28;20031;-75
2021/09/18 07:29:25;;;;;;;11.20;9.20;;;;;;;;;;5072367;28;20077;-76
2021/09/18 07:31:52;;;;;;;12.00;9.50;;;;;;;;;;5055937;28;20480;-77
2021/09/18 07:34:18;;;;;;;11.30;9.45;;;;;;;;;;5082242;28;20032;-78
2021/09/18 07:36:44;;;;;;;12.60;9.43;;;;;;;;;;5082123;28;20029;-78
2021/09/18 07:39:10;;;;;;;11.00;9.35;;;;;;;;;;5080741;28;20029;-78
2021/09/18 07:41:36;;;;;;;13.82;9.50;;;;;;;;;;5079296;28;20074;-78
2021/09/18 07:44:02;;;;;;;13.38;9.80;;;;;;;;;;5077717;28;20029;-76
2021/09/18 07:46:30;;;;;;;14.30;9.73;;;;;;;;;;5072580;28;20028;-76
2021/09/18 07:48:56;;;;;;;11.85;9.90;;;;;;;;;;5072552;28;20056;-75
2021/09/18 07:51:22;;;;;;;11.55;9.15;;;;;;;;;;5073155;28;20039;-78
2021/09/18 07:53:48;;;;;;;11.15;7.38;;;;;;;;;;5078420;28;20028;-78
2021/09/18 07:56:14;;;;;;;9.65;7.85;;;;;;;;;;5078869;28;20036;-78
2021/09/18 07:58:40;;;;;;;10.45;8.05;;;;;;;;;;5078096;28;20129;-78
2021/09/18 08:01:06;;;;;;;8.02;6.85;;;;;;;;;;5077790;28;20024;-78
2021/09/18 08:03:32;;;;;;;9.93;7.30;;;;;;;;;;5079172;28;20033;-78
2021/09/18 08:05:58;;;;;;;11.07;7.82;;;;;;;;;;5077183;28;20472;-78
2021/09/18 08:08:24;;;;;;;9.15;7.18;;;;;;;;;;5078563;28;20050;-78
2021/09/18 08:10:50;;;;;;;11.50;8.18;;;;;;;;;;5071965;28;20041;-75
2021/09/18 08:13:16;;;;;;;11.75;8.15;;;;;;;;;;5072736;28;20504;-78
2021/09/18 08:15:42;;;;;;;8.55;7.65;;;;;;;;;;5077023;28;20063;-78
2021/09/18 08:18:08;;;;;;;9.30;8.30;;;;;;;;;;5077024;28;20082;-78
2021/09/18 08:20:34;;;;;;;13.13;7.65;;;;;;;;;;5076283;28;20082;-78
2021/09/18 08:23:00;;;;;;;8.35;7.43;;;;;;;;;;5077490;28;20031;-78
2021/09/18 08:25:26;;;;;;;12.20;7.05;;;;;;;;;;5080299;28;20507;-78
2021/09/18 08:27:52;;;;;;;8.50;6.70;;;;;;;;;;5072213;28;20068;-76
2021/09/18 08:30:18;;;;;;;9.70;6.60;;;;;;;;;;5055684;28;20048;-76
2021/09/18 08:32:44;;;;;;;7.53;6.07;;;;;;;;;;5062470;28;20075;-76
2021/09/18 08:35:11;;;;;;;9.07;5.35;;;;;;;;;;5047998;28;20431;-76
2021/09/18 08:37:37;;;;;;;12.13;5.85;;;;;;;;;;5064164;28;20055;-76
2021/09/18 08:40:05;;;;;;;10.70;6.85;;;;;;;;;;5067342;28;20048;-76
2021/09/18 08:42:31;;;;;;;9.63;6.10;;;;;;;;;;5067540;28;20111;-76
2021/09/18 08:44:57;;;;;;;9.45;6.43;;;;;;;;;;5067449;28;20493;-76
2021/09/18 08:47:24;;;;;;;8.35;6.50;;;;;;;;;;5068145;28;20025;-76
2021/09/18 08:49:50;;;;;;;8.45;5.70;;;;;;;;;;5065170;28;20056;-76
2021/09/18 08:52:16;;;;;;;7.78;5.10;;;;;;;;;;5066767;28;20028;-75
2021/09/18 08:54:43;;;;;;;7.35;6.00;;;;;;;;;;5066822;28;20067;-78
2021/09/18 08:57:10;;;;;;;8.05;5.70;;;;;;;;;;5078030;28;20404;-78
2021/09/18 08:59:37;;;;;;;6.68;5.68;;;;;;;;;;5074076;28;20036;-76
2021/09/18 09:02:17;;;;;;;9.57;6.00;;;;;;;;;;5066935;28;20104;-76
2021/09/18 09:04:44;;;;;;;7.25;5.88;;;;;;;;;;5071632;28;20063;-76
2021/09/18 09:07:12;;;;;;;8.25;5.38;;;;;;;;;;5050431;28;20396;-76
2021/09/18 09:09:59;;;;;;;8.73;5.50;;;;;;;;;;5070853;28;20107;-76
2021/09/18 09:12:28;;;;;;;6.90;5.18;;;;;;;;;;5078279;28;20033;-79
2021/09/18 09:14:54;;;;;;;6.85;5.47;;;;;;;;;;5080103;28;20054;-79
2021/09/18 09:17:27;;;;;;;5.63;4.72;;;;;;;;;;5079289;28;20028;-79
2021/09/18 09:19:54;;;;;;;5.95;5.15;;;;;;;;;;5079243;28;20056;-79
2021/09/18 09:22:58;;;;;;;9.40;4.75;;;;;;;;;;5071466;28;20047;-76
2021/09/18 09:25:25;;;;;;;6.30;4.32;;;;;;;;;;4975785;28;20114;-78
2021/09/18 09:27:51;;;;;;;5.18;3.92;;;;;;;;;;4979111;28;20082;-78
2021/09/18 09:30:28;;;;;;;5.13;3.92;;;;;;;;;;5020028;28;20044;-76
2021/09/18 09:32:54;;;;;;;5.43;3.85;;;;;;;;;;5066338;28;20013;-77
2021/09/18 09:35:20;;;;;;;3.85;3.40;;;;;;;;;;5071260;28;20448;-77
2021/09/18 09:37:57;;;;;;;4.88;3.22;;;;;;;;;;5071472;28;20089;-76
2021/09/18 09:40:35;;;;;;;4.15;2.72;;;12.90;99.90;;;;;;5075411;28;20664;-79
2021/09/18 09:43:01;;;;;;;3.60;2.53;;;;;;;;;;5075358;28;20017;-79
2021/09/18 09:45:27;;;;;;;6.18;2.60;;;;;;;;;;5075662;28;20051;-78
2021/09/18 09:48:02;;;;;;;4.13;2.83;;;;;;;;;;5075238;28;20468;-79
2021/09/18 09:50:27;;;;;;;4.00;2.50;;;28.20;80.10;;;;;;5074080;28;20033;-79
2021/09/18 09:52:56;;;;;;;3.60;2.40;;;29.20;71.40;;;;;;5074989;28;20051;-79
2021/09/18 09:55:22;;;;;;;3.92;1.83;;;29.40;69.00;;;;;;5072612;28;20029;-77
2021/09/18 09:57:59;;;;;;;2.63;2.25;;;29.40;67.40;;;;;;5071622;28;20027;-77
2021/09/18 10:00:35;;;;;;;5.32;2.13;;;29.40;68.30;;;;;;5069956;28;20032;-77
2021/09/18 10:03:01;;;;;;;2.60;1.60;;;29.50;65.80;;;;;;5071946;28;20373;-77
2021/09/18 10:05:27;;;;;;;3.67;2.05;;;29.80;64.80;;;;;;5072743;28;20032;-77
2021/09/18 10:07:53;;;;;;;3.38;2.10;;;29.60;63.00;;;;;;5072845;28;20029;-77
2021/09/18 10:10:20;;;;;;;2.00;1.80;;;29.40;63.20;;;;;;5053209;28;20124;-76
2021/09/18 10:12:46;;;;;;;1.70;1.50;;;29.70;64.70;;;;;;5054835;28;20119;-78
2021/09/18 10:15:12;;;;;;;3.47;1.80;;;30.20;61.50;;;;;;5058677;28;20028;-78
2021/09/18 10:17:42;;;;;;;4.72;1.33;;;30.20;60.60;;;;;;5071965;28;20059;-78
2021/09/18 10:20:11;;;;;;;1.90;1.30;;;;;;;;;;5054929;28;20021;-78
2021/09/18 10:25:25;;;;;;;2.10;1.38;;;;;;;;;;5076359;28;20035;-77
2021/09/18 10:27:57;;;;;;;2.80;1.60;;;;;;;;;;5076259;28;20017;-77
2021/09/18 10:30:31;;;;;;;2.95;1.80;;;;;;;;;;5078272;28;20032;-80
2021/09/18 10:32:57;;;;;;;1.80;1.25;;;;;;;;;;5068399;28;20040;-80
2021/09/18 10:35:23;;;;;;;1.77;1.35;;;;;;;;;;5089373;28;20032;-79
2021/09/18 10:37:49;;;;;;;2.53;1.48;;;;;;;;;;5086860;28;20037;-79
2021/09/18 10:40:16;;;;;;;2.38;1.17;;;;;;;;;;5078851;28;20059;-78
2021/09/18 10:42:43;;;;;;;1.75;1.27;;;;;;;;;;5079685;28;20433;-79
2021/09/18 10:45:11;;;;;;;4.60;1.92;;;;;;;;;;5084157;28;20029;-79
2021/09/18 10:47:40;;;;;;;1.70;1.45;;;;;;;;;;5078332;28;20013;-79
2021/09/18 10:50:26;;;;;;;3.22;1.48;;;;;;;;;;5062475;28;20017;-79
2021/09/18 10:53:02;;;;;;;3.20;1.73;;;;;;;;;;5052281;28;20032;-79
2021/09/18 10:55:30;;;;;;;2.92;1.40;;;;;;;;;;5082129;28;20024;-78
2021/09/18 10:57:55;;;;;;;2.33;1.40;;;;;;;;;;5080055;28;20049;-78
2021/09/18 11:00:21;;;;;;;2.60;1.40;;;;;;;;;;5080353;28;20029;-78
2021/09/18 11:02:54;;;;;;;1.98;1.20;;;30.20;59.90;;;;;;5080506;28;20021;-78
2021/09/18 11:05:26;;;;;;;1.70;1.23;;;32.30;55.40;;;;;;5080002;28;20021;-78
2021/09/18 11:07:59;;;;;;;;;;;32.60;55.00;;;;;;5078703;28;20024;-77
2021/09/18 11:10:24;;;;;;;2.80;1.42;;;32.40;55.00;;;;;;5077170;28;19915;-80
2021/09/18 11:13:12;;;;;;;1.42;1.33;;;32.10;55.60;;;;;;5075657;28;20045;-77
2021/09/18 11:15:44;;;;;;;1.88;1.23;;;32.30;55.00;;;;;;5073762;28;20100;-80
2021/09/18 11:18:34;;;;;;;2.20;1.73;;;32.40;54.90;;;;;;5083654;28;20088;-78
2021/09/18 11:21:08;;;;;;;1.95;1.45;;;31.90;55.10;;;;;;5061476;28;20048;-79
2021/09/18 11:23:41;;;;;;;2.25;1.45;;;31.40;55.80;;;;;;5089846;28;20043;-77
2021/09/18 11:26:39;;;;;;;2.15;1.38;;;31.40;55.70;;;;;;5089554;28;20029;-77
2021/09/18 11:29:09;;;;;;;1.33;1.15;;;32.00;56.00;;;;;;5087931;28;20013;-77
2021/09/18 11:31:34;;;;;;;2.15;1.48;;;32.00;55.10;;;;;;5087922;28;20028;-77
2021/09/18 11:34:02;;;;;;;1.80;1.50;;;32.50;54.20;;;;;;5073262;28;20033;-77
2021/09/18 11:36:27;;;;;;;2.38;1.20;;;32.80;54.60;;;;;;5070056;28;20139;-79
2021/09/18 11:38:53;;;;;;;1.77;1.30;;;33.00;53.90;;;;;;5036665;28;20063;-77
2021/09/18 11:41:20;;;;;;;2.22;1.30;;;33.00;54.30;;;;;;5060472;28;20025;-76
2021/09/18 11:43:46;;;;;;;2.05;1.40;;;33.10;54.10;;;;;;5056145;28;20028;-77
2021/09/18 11:46:23;;;;;;;1.30;1.20;;;33.00;53.30;;;;;;5037196;28;20033;-77
2021/09/18 11:48:59;;;;;;;2.85;1.65;;;33.10;53.40;;;;;;5055200;28;20021;-75
2021/09/18 11:51:25;;;;;;;1.48;1.30;;;32.60;55.90;;;;;;5063885;28;20500;-77
2021/09/18 11:54:06;;;;;;;3.42;1.42;;;32.20;54.10;;;;;;5057276;28;20048;-77
2021/09/18 11:56:32;;;;;;;3.47;1.75;;;31.30;55.30;;;;;;5080721;28;20029;-77
2021/09/18 11:59:08;;;;;;;2.67;1.50;;;31.50;55.40;;;;;;5079968;28;20078;-77
2021/09/18 12:01:35;;;;;;;1.30;1.20;;;32.30;54.70;;;;;;5079032;28;20509;-77
2021/09/18 12:04:01;;;;;;;1.70;1.30;;;32.80;53.20;;;;;;5056884;28;20497;-78
2021/09/18 12:06:29;;;;;;;2.33;1.50;;;32.40;52.70;;;;;;5075930;28;20025;-78
2021/09/18 12:08:55;;;;;;;1.60;1.50;;;32.50;52.60;;;;;;5075603;28;20033;-78
2021/09/18 12:11:21;;;;;;;1.98;1.40;;;32.60;54.10;;;;;;5069685;28;20507;-78
2021/09/18 12:13:50;;;;;;;2.03;1.58;;;32.80;52.90;;;;;;5070529;28;20025;-77
2021/09/18 12:16:18;;;;;;;4.03;1.63;;;32.80;53.40;;;;;;5058874;28;20025;-77
2021/09/18 12:18:49;;;;;;;2.70;1.77;;;32.80;52.60;;;;;;5073490;28;20404;-78
2021/09/18 12:21:41;;;;;;;2.00;1.65;;;32.80;52.50;;;;;;5073161;28;20029;-77
2021/09/18 12:24:10;;;;;;;4.13;1.67;;;32.30;53.20;;;;;;5070568;28;20039;-77
2021/09/18 12:26:38;;;;;;;1.50;1.40;;;32.20;53.30;;;;;;5073574;28;20017;-77
2021/09/18 12:29:10;;;;;;;2.38;1.70;;;32.90;52.90;;;;;;5072940;28;20028;-77
2021/09/18 12:31:37;;;;;;;3.35;1.80;;;32.90;52.70;;;;;;5073486;28;20444;-77
2021/09/18 12:34:37;;;;;;;7.10;1.70;;;32.60;53.00;;;;;;5073237;28;20032;-78
2021/09/18 12:37:07;;;;;;;3.75;1.90;;;32.80;52.60;;;;;;5059783;28;20040;-78
2021/09/18 12:39:34;;;;;;;2.60;1.73;;;32.70;53.30;;;;;;5072226;28;20028;-77
2021/09/18 12:42:04;;;;;;;1.80;1.50;;;32.40;54.00;;;;;;5055202;28;20024;-78
2021/09/18 12:44:35;;;;;;;3.22;1.98;;;32.40;54.30;;;;;;5073457;28;20097;-77
2021/09/18 12:47:01;;;;;;;2.47;1.85;;;31.80;53.40;;;;;;5073286;28;20445;-77
2021/09/18 12:49:34;;;;;;;2.92;1.92;;;31.70;54.20;;;;;;5054681;28;20060;-77
2021/09/18 12:52:05;;;;;;;1.90;1.50;;;31.60;54.60;;;;;;5073019;28;20024;-77
2021/09/18 12:54:41;;;;;;;3.15;1.88;;;31.50;54.60;;;;;;5073449;28;20039;-77
2021/09/18 12:57:07;;;;;;;2.53;1.40;;;31.40;54.00;;;;;;5073439;28;20032;-77
2021/09/18 12:59:44;;;;;;;2.08;1.52;;;31.50;53.10;;;;;;5074088;28;20039;-78
2021/09/18 13:02:10;;;;;;;3.03;1.95;;;31.50;52.90;;;;;;5073884;28;20557;-78
2021/09/18 13:04:36;;;;;;;2.85;1.73;;;31.50;53.10;;;;;;5071722;28;20143;-76
2021/09/18 13:07:07;;;;;;;2.17;1.45;;;31.80;53.10;;;;;;5071192;28;20142;-76
2021/09/18 13:09:38;;;;;;;3.53;1.67;;;31.70;52.70;;;;;;5071109;28;20039;-78
2021/09/18 13:12:08;;;;;;;3.13;1.60;;;31.40;52.30;;;;;;5072300;28;20044;-78
2021/09/18 13:14:36;;;;;;;2.33;1.40;;;31.20;53.70;;;;;;5072274;28;20106;-77